createdAt,value
2023-05-05T08:51:44.397Z,99.30
2023-05-05T08:54:18.858Z,99.90
2023-05-05T08:56:50.751Z,99.90
2023-05-05T08:59:21.243Z,99.90
2023-05-05T09:01:49.793Z,99.90
2023-05-05T09:04:19.169Z,99.90
2023-05-05T09:06:48.992Z,99.90
2023-05-05T09:09:18.205Z,99.90
2023-05-05T09:11:47.105Z,99.90
2023-05-05T09:14:15.893Z,99.90
2023-05-05T09:16:44.570Z,99.90
2023-05-05T09:19:12.982Z,99.90
2023-05-05T09:21:49.801Z,99.90
2023-05-05T09:24:18.741Z,99.90
2023-05-05T09:26:49.765Z,99.90
2023-05-05T09:29:22.491Z,99.90
2023-05-05T09:32:05.528Z,99.90
2023-05-05T09:34:35.427Z,99.90
2023-05-05T09:37:06.114Z,99.90
2023-05-05T09:39:34.670Z,99.90
2023-05-05T09:42:04.154Z,99.90
2023-05-05T09:44:36.706Z,99.90
2023-05-05T09:47:11.981Z,99.90
2023-05-05T09:49:46.933Z,99.90
2023-05-05T09:52:17.783Z,99.90
2023-05-05T09:54:46.433Z,99.90
2023-05-05T09:57:27.866Z,99.80
2023-05-05T09:59:57.739Z,99.60
2023-05-05T10:02:33.992Z,99.50
2023-05-05T10:05:08.389Z,99.50
2023-05-05T10:07:38.794Z,99.70
2023-05-05T10:10:09.594Z,99.40
2023-05-05T10:12:38.655Z,99.70
2023-05-05T10:15:08.705Z,99.90
2023-05-05T10:17:38.952Z,99.60
2023-05-05T10:20:11.129Z,99.50
2023-05-05T10:22:44.806Z,99.90
2023-05-05T10:25:15.471Z,99.60
2023-05-05T10:27:45.510Z,99.90
2023-05-05T10:30:20.609Z,98.70
2023-05-05T10:33:03.994Z,98.40
2023-05-05T10:35:35.473Z,97.80
2023-05-05T10:38:05.912Z,97.10
2023-05-05T10:40:35.233Z,96.80
2023-05-05T10:43:04.082Z,96.90
2023-05-05T10:45:32.664Z,96.50
2023-05-05T10:48:05.360Z,94.90
2023-05-05T10:50:39.540Z,95.10
2023-05-05T10:53:18.235Z,94.90
2023-05-05T10:55:53.412Z,94.90
2023-05-05T10:58:51.115Z,94.80
2023-05-05T11:01:31.903Z,95.40
2023-05-05T11:04:23.117Z,95.40
2023-05-05T11:07:26.021Z,94.80
2023-05-05T11:10:01.187Z,94.30
2023-05-05T11:12:30.082Z,94.20
2023-05-05T11:15:37.854Z,94.20
2023-05-05T11:18:08.380Z,93.70
2023-05-05T11:21:15.274Z,93.40
2023-05-05T11:23:45.818Z,93.70
2023-05-05T11:26:16.779Z,93.60
2023-05-05T11:29:02.482Z,93.00
2023-05-05T11:31:31.951Z,92.70
2023-05-05T11:34:28.280Z,93.30
2023-05-05T11:37:00.720Z,93.90
2023-05-05T11:39:48.354Z,93.70
2023-05-05T11:42:25.945Z,95.50
2023-05-05T11:44:55.730Z,95.60
2023-05-05T11:47:31.348Z,95.50
2023-05-05T11:50:00.401Z,95.60
2023-05-05T11:52:28.797Z,95.60
2023-05-05T11:55:02.551Z,95.60
2023-05-05T11:57:32.482Z,95.80
2023-05-05T12:00:02.742Z,96.00
2023-05-05T12:02:35.079Z,95.50
2023-05-05T12:05:04.019Z,95.20
2023-05-05T12:07:34.174Z,95.40
2023-05-05T12:10:02.728Z,93.60
2023-05-05T12:12:40.971Z,94.00
2023-05-05T12:15:10.386Z,92.80
2023-05-05T12:17:42.648Z,92.90
2023-05-05T12:20:12.919Z,92.30
2023-05-05T12:22:41.924Z,91.70
2023-05-05T12:25:11.400Z,91.10
2023-05-05T12:27:41.242Z,90.20
2023-05-05T12:30:15.369Z,90.50
2023-05-05T12:32:45.286Z,90.80
2023-05-05T12:35:14.694Z,90.80
2023-05-05T12:37:44.104Z,90.00
2023-05-05T12:40:49.376Z,90.50
2023-05-05T12:43:31.152Z,90.80
2023-05-05T12:46:17.716Z,91.30
2023-05-05T12:48:48.311Z,91.70
2023-05-05T12:51:19.777Z,92.00
2023-05-05T12:53:49.498Z,91.30
2023-05-05T12:56:34.736Z,91.10
2023-05-05T12:59:05.963Z,92.50
2023-05-05T13:01:34.556Z,92.60
2023-05-05T13:04:21.417Z,91.90
2023-05-05T13:06:54.501Z,91.90
2023-05-05T13:09:27.023Z,92.20
2023-05-05T13:11:55.924Z,92.80
2023-05-05T13:14:25.576Z,92.10
2023-05-05T13:16:54.385Z,91.80
2023-05-05T13:19:23.685Z,92.20
2023-05-05T13:21:52.140Z,91.50
2023-05-05T13:24:28.552Z,91.50
2023-05-05T13:27:04.422Z,92.10
2023-05-05T13:29:34.538Z,91.60
2023-05-05T13:32:02.998Z,91.60
2023-05-05T13:34:31.436Z,90.50
2023-05-05T13:36:59.754Z,90.20
2023-05-05T13:39:28.045Z,90.00
2023-05-05T13:41:56.348Z,90.50
2023-05-05T13:44:24.595Z,90.60
2023-05-05T13:46:54.356Z,90.10
2023-05-05T13:49:22.726Z,90.90
2023-05-05T13:51:51.040Z,90.80
2023-05-05T13:54:19.363Z,91.20
2023-05-05T13:56:47.786Z,90.90
2023-05-05T13:59:16.191Z,91.10
2023-05-05T14:01:44.522Z,91.10
2023-05-05T14:04:14.292Z,91.60
2023-05-05T14:06:42.738Z,91.70
2023-05-05T14:09:11.020Z,92.40
2023-05-05T14:11:39.295Z,91.90
2023-05-05T14:14:07.743Z,92.20
2023-05-05T14:16:36.094Z,92.60
2023-05-05T14:19:04.433Z,92.60
2023-05-05T14:21:34.123Z,92.10
2023-05-05T14:24:02.431Z,92.40
2023-05-05T14:26:30.722Z,91.30
2023-05-05T14:28:59.035Z,90.40
2023-05-05T14:31:27.434Z,91.20
2023-05-05T14:33:55.864Z,91.40
2023-05-05T14:36:24.275Z,91.30
2023-05-05T14:38:53.954Z,90.90
2023-05-05T14:41:22.341Z,91.40
2023-05-05T14:43:50.776Z,91.80
2023-05-05T14:46:19.237Z,91.20
2023-05-05T14:48:48.314Z,92.50
2023-05-05T14:51:16.859Z,92.20
2023-05-05T14:53:45.239Z,92.80
2023-05-05T14:56:14.995Z,93.00
2023-05-05T14:58:43.454Z,93.00
2023-05-05T15:01:11.805Z,92.20
2023-05-05T15:03:40.431Z,93.30
2023-05-05T15:06:09.241Z,92.70
2023-05-05T15:08:38.903Z,92.50
2023-05-05T15:11:07.383Z,92.00
2023-05-05T15:13:38.609Z,92.90
2023-05-05T15:16:07.862Z,93.20
2023-05-05T15:18:36.291Z,92.70
2023-05-05T15:21:04.794Z,92.60
2023-05-05T15:23:33.125Z,92.00
2023-05-05T15:26:01.703Z,92.00
2023-05-05T15:28:30.039Z,91.80
2023-05-05T15:31:01.799Z,91.40
2023-05-05T15:33:31.473Z,91.60
2023-05-05T15:36:00.306Z,92.00
2023-05-05T15:38:29.058Z,91.80
2023-05-05T15:40:57.443Z,92.60
2023-05-05T15:43:25.863Z,92.20
2023-05-05T15:45:55.196Z,92.50
2023-05-05T15:48:24.910Z,92.00
2023-05-05T15:50:53.250Z,93.10
2023-05-05T15:53:22.131Z,92.70
2023-05-05T15:55:50.637Z,93.40
2023-05-05T15:58:18.965Z,93.00
2023-05-05T16:00:47.223Z,92.80
2023-05-05T16:03:15.746Z,92.50
2023-05-05T16:05:47.070Z,92.40
2023-05-05T16:08:15.454Z,92.50
2023-05-05T16:10:43.711Z,92.70
2023-05-05T16:13:12.053Z,93.20
2023-05-05T16:15:40.364Z,93.30
2023-05-05T16:18:08.700Z,93.20
2023-05-05T16:20:36.919Z,93.40
2023-05-05T16:23:06.826Z,93.20
2023-05-05T16:25:35.072Z,92.90
2023-05-05T16:28:03.359Z,93.10
2023-05-05T16:30:31.725Z,93.00
2023-05-05T16:33:00.048Z,93.40
2023-05-05T16:35:28.442Z,93.70
2023-05-05T16:37:56.934Z,93.80
2023-05-05T16:40:26.700Z,93.80
2023-05-05T16:42:55.023Z,93.60
2023-05-05T16:45:24.348Z,93.90
2023-05-05T16:47:52.886Z,94.10
2023-05-05T16:50:21.353Z,94.50
2023-05-05T16:52:49.787Z,94.10
2023-05-05T16:55:18.250Z,94.20
2023-05-05T16:57:48.210Z,94.30
2023-05-05T17:00:16.920Z,94.20
2023-05-05T17:02:45.222Z,94.30
2023-05-05T17:05:13.794Z,94.70
2023-05-05T17:07:42.129Z,94.60
2023-05-05T17:10:11.281Z,94.40
2023-05-05T17:12:39.565Z,94.50
2023-05-05T17:15:10.627Z,94.60
2023-05-05T17:17:40.552Z,94.50
2023-05-05T17:20:12.039Z,94.40
2023-05-05T17:22:40.528Z,94.40
2023-05-05T17:25:09.786Z,94.50
2023-05-05T17:27:38.447Z,94.60
2023-05-05T17:30:09.722Z,94.40
2023-05-05T17:32:38.186Z,94.10
2023-05-05T17:35:07.589Z,94.20
2023-05-05T17:37:36.608Z,93.90
2023-05-05T17:40:05.586Z,93.90
2023-05-05T17:42:33.958Z,93.90
2023-05-05T17:45:02.490Z,94.10
2023-05-05T17:47:33.045Z,94.20
2023-05-05T17:50:01.572Z,94.40
2023-05-05T17:52:29.973Z,94.50
2023-05-05T17:54:58.456Z,94.40
2023-05-05T17:57:26.781Z,94.60
2023-05-05T17:59:55.119Z,94.90
2023-05-05T18:02:23.995Z,95.00
2023-05-05T18:04:53.949Z,95.50
2023-05-05T18:07:22.278Z,95.80
2023-05-05T18:09:51.881Z,95.90
2023-05-05T18:12:20.176Z,96.00
2023-05-05T18:14:48.632Z,96.20
2023-05-05T18:17:16.925Z,96.30
2023-05-05T18:19:47.797Z,96.50
2023-05-05T18:22:18.843Z,96.70
2023-05-05T18:24:47.437Z,96.80
2023-05-05T18:27:15.973Z,97.00
2023-05-05T18:29:44.223Z,97.20
2023-05-05T18:32:12.607Z,97.20
2023-05-05T18:34:40.854Z,97.30
2023-05-05T18:37:09.147Z,97.40
2023-05-05T18:39:39.197Z,97.40
2023-05-05T18:42:07.913Z,97.50
2023-05-05T18:44:36.225Z,97.70
2023-05-05T18:47:04.676Z,97.80
2023-05-05T18:49:32.957Z,98.00
2023-05-05T18:52:01.285Z,98.10
2023-05-05T18:54:29.590Z,98.20
2023-05-05T18:56:59.441Z,98.20
2023-05-05T18:59:27.745Z,98.40
2023-05-05T19:01:56.040Z,98.40
2023-05-05T19:04:31.264Z,98.50
2023-05-05T19:07:00.419Z,98.50
2023-05-05T19:09:28.892Z,98.80
2023-05-05T19:11:58.559Z,98.90
2023-05-05T19:14:27.169Z,98.90
2023-05-05T19:16:56.130Z,99.00
2023-05-05T19:19:24.702Z,99.10
2023-05-05T19:21:53.036Z,99.30
2023-05-05T19:24:21.299Z,99.30
2023-05-05T19:26:49.503Z,99.40
2023-05-05T19:29:19.142Z,99.50
2023-05-05T19:31:47.504Z,99.50
2023-05-05T19:34:15.821Z,99.90
2023-05-05T19:36:44.130Z,99.90
2023-05-05T19:39:13.791Z,99.90
2023-05-05T19:41:44.048Z,99.90
2023-05-05T19:44:12.393Z,99.90
2023-05-05T19:46:42.221Z,99.90
2023-05-05T19:49:10.536Z,99.90
2023-05-05T19:51:38.827Z,99.90
2023-05-05T19:54:07.168Z,99.90
2023-05-05T19:56:35.598Z,99.90
2023-05-05T19:59:06.140Z,99.90
2023-05-05T20:01:34.900Z,99.90
2023-05-05T20:04:04.878Z,99.90
2023-05-05T20:06:33.624Z,99.90
2023-05-05T20:09:01.993Z,99.90
2023-05-05T20:11:30.459Z,99.90
2023-05-05T20:13:59.150Z,99.90
2023-05-05T20:16:27.528Z,99.90
2023-05-05T20:18:55.846Z,99.90
2023-05-05T20:21:25.555Z,99.90
2023-05-05T20:23:55.060Z,99.90
2023-05-05T20:26:24.364Z,99.90
2023-05-05T20:28:52.724Z,99.90
2023-05-05T20:31:21.293Z,99.90
2023-05-05T20:33:49.663Z,99.90
2023-05-05T20:36:18.376Z,99.90
2023-05-05T20:38:48.036Z,99.90
2023-05-05T20:41:16.404Z,99.90
2023-05-05T20:43:44.837Z,99.90
2023-05-05T20:46:13.483Z,99.90
2023-05-05T20:48:43.009Z,99.90
2023-05-05T20:51:11.629Z,99.90
2023-05-05T20:53:39.943Z,99.90
2023-05-05T20:56:09.607Z,99.90
2023-05-05T20:58:37.914Z,99.90
2023-05-05T21:01:06.273Z,99.90
2023-05-05T21:03:34.589Z,99.90
2023-05-05T21:06:03.195Z,99.90
2023-05-05T21:08:31.760Z,99.90
2023-05-05T21:11:00.144Z,99.90
2023-05-05T21:13:30.521Z,99.90
2023-05-05T21:15:58.884Z,99.90
2023-05-05T21:18:27.646Z,99.90
2023-05-05T21:20:56.375Z,99.90
2023-05-05T21:23:24.666Z,99.90
2023-05-05T21:25:53.017Z,99.90
2023-05-05T21:28:21.370Z,99.90
2023-05-05T21:31:10.445Z,99.90
2023-05-05T21:33:40.380Z,99.90
2023-05-05T21:36:09.000Z,99.90
2023-05-05T21:38:37.321Z,99.90
2023-05-05T21:41:05.878Z,99.90
2023-05-05T21:43:34.186Z,99.90
2023-05-05T21:46:05.407Z,99.90
2023-05-05T21:48:33.849Z,99.90
2023-05-05T21:51:02.157Z,99.90
2023-05-05T21:53:30.878Z,99.90
2023-05-05T21:55:59.171Z,99.90
2023-05-05T21:58:27.586Z,99.90
2023-05-05T22:00:55.955Z,99.90
2023-05-05T22:03:26.114Z,99.90
2023-05-05T22:05:54.588Z,99.90
2023-05-05T22:08:22.962Z,99.90
2023-05-05T22:10:51.433Z,99.90
2023-05-05T22:13:19.751Z,99.90
2023-05-05T22:15:48.355Z,99.90
2023-05-05T22:18:16.682Z,99.90
2023-05-05T22:20:46.809Z,99.90
2023-05-05T22:23:16.155Z,99.90
2023-05-05T22:25:45.393Z,99.90
2023-05-05T22:28:13.680Z,99.90
2023-05-05T22:30:42.172Z,99.90
2023-05-05T22:33:10.828Z,99.90
2023-05-05T22:35:39.142Z,99.90
2023-05-05T22:38:08.897Z,99.90
2023-05-05T22:40:37.366Z,99.90
2023-05-05T22:43:05.935Z,99.90
2023-05-05T22:45:34.649Z,99.90
2023-05-05T22:48:03.251Z,99.90
2023-05-05T22:50:31.666Z,99.90
2023-05-05T22:52:59.977Z,99.90
2023-05-05T22:55:29.739Z,99.90
2023-05-05T22:57:58.042Z,99.90
2023-05-05T23:00:26.438Z,99.90
2023-05-05T23:02:54.903Z,99.90
2023-05-05T23:05:23.362Z,99.90
2023-05-05T23:07:51.772Z,99.90
2023-05-05T23:10:20.058Z,99.90
2023-05-05T23:12:49.790Z,99.90
2023-05-05T23:15:18.264Z,99.90
2023-05-05T23:17:46.707Z,99.90
2023-05-05T23:20:15.186Z,99.90
2023-05-05T23:22:43.548Z,99.90
2023-05-05T23:25:12.320Z,99.90
2023-05-05T23:27:41.347Z,99.90
2023-05-05T23:30:12.220Z,99.90
2023-05-05T23:32:40.677Z,99.90
2023-05-05T23:35:09.906Z,99.90
2023-05-05T23:37:38.430Z,99.90
2023-05-05T23:40:07.895Z,99.90
2023-05-05T23:42:36.286Z,99.90
2023-05-05T23:45:05.012Z,99.90
2023-05-05T23:47:34.842Z,99.90
2023-05-05T23:50:03.289Z,99.90
2023-05-05T23:52:31.609Z,99.90
2023-05-05T23:54:59.869Z,99.90
2023-05-05T23:57:28.162Z,99.90
